Time,TemperatureF,DewpointF,PressureIn,WindDirection,WindDirectionDegrees,WindSpeedMPH,WindSpeedGustMPH,Humidity,HourlyPrecipIn,Conditions,Clouds,dailyrainin,SoftwareType,DateUTC
2013-03-29 00:07:00,31.0,23.0,30.28,WNW,290,2.0,5.0,72,0.00,,,0.00,weatherlink.com 1.10,2013-03-29 04:07:00,
2013-03-29 00:22:00,30.6,23.0,30.29,WNW,290,3.0,4.0,73,0.00,,,0.00,weatherlink.com 1.10,2013-03-29 04:22:00,
2013-03-29 00:37:00,30.2,23.0,30.29,WNW,291,3.0,4.0,74,0.00,,,0.00,weatherlink.com 1.10,2013-03-29 04:37:00,
2013-03-29 00:52:00,30.1,23.0,30.29,NW,304,4.0,5.0,74,0.00,,,0.00,weatherlink.com 1.10,2013-03-29 04:52:00,
2013-03-29 01:07:00,29.7,23.0,30.29,WNW,297,2.0,5.0,75,0.00,,,0.00,weatherlink.com 1.10,2013-03-29 05:07:00,
2013-03-29 01:22:00,29.6,23.0,30.29,WNW,303,2.0,5.0,76,0.00,,,0.00,weatherlink.com 1.10,2013-03-29 05:22:00,
2013-03-29 01:37:00,29.1,22.0,30.29,WNW,303,0.0,3.0,76,0.00,,,0.00,weatherlink.com 1.10,2013-03-29 05:37:00,
2013-03-29 01:52:00,28.6,22.0,30.29,WNW,303,1.0,3.0,77,0.00,,,0.00,weatherlink.com 1.10,2013-03-29 05:52:00,
2013-03-29 02:07:00,28.3,22.0,30.29,WNW,303,0.0,3.0,78,0.00,,,0.00,weatherlink.com 1.10,2013-03-29 06:07:00,
2013-03-29 02:23:00,28.6,23.0,30.29,NNW,329,4.0,5.0,78,0.00,,,0.00,weatherlink.com 1.10,2013-03-29 06:23:00,
2013-03-29 02:37:00,29.6,23.0,30.29,NW,320,1.0,6.0,75,0.00,,,0.00,weatherlink.com 1.10,2013-03-29 06:37:00,
2013-03-29 02:52:00,28.9,22.0,30.29,NW,304,2.0,5.0,76,0.00,,,0.00,weatherlink.com 1.10,2013-03-29 06:52:00,
2013-03-29 03:07:00,28.4,22.0,30.29,NW,314,4.0,5.0,76,0.00,,,0.00,weatherlink.com 1.10,2013-03-29 07:07:00,
2013-03-29 03:22:00,29.3,22.0,30.28,NNW,346,5.0,7.0,74,0.00,,,0.00,weatherlink.com 1.10,2013-03-29 07:22:00,
2013-03-29 03:37:00,28.8,22.0,30.28,NNW,340,0.0,4.0,75,0.00,,,0.00,weatherlink.com 1.10,2013-03-29 07:37:00,
2013-03-29 03:52:00,28.2,22.0,30.28,NNW,340,0.0,2.0,76,0.00,,,0.00,weatherlink.com 1.10,2013-03-29 07:52:00,
2013-03-29 04:07:00,27.7,21.0,30.28,NNW,340,0.0,2.0,77,0.00,,,0.00,weatherlink.com 1.10,2013-03-29 08:07:00,
2013-03-29 04:22:00,27.1,21.0,30.28,NNW,340,0.0,1.0,78,0.00,,,0.00,weatherlink.com 1.10,2013-03-29 08:22:00,
2013-03-29 04:37:00,26.6,21.0,30.28,NNW,340,0.0,2.0,80,0.00,,,0.00,weatherlink.com 1.10,2013-03-29 08:37:00,
2013-03-29 04:53:00,26.3,22.0,30.29,NNW,340,0.0,3.0,82,0.00,,,0.00,weatherlink.com 1.10,2013-03-29 08:53:00,
2013-03-29 05:07:00,25.8,21.0,30.29,NNW,340,0.0,0.0,82,0.00,,,0.00,weatherlink.com 1.10,2013-03-29 09:07:00,
2013-03-29 05:22:00,24.6,20.0,30.29,NNW,340,0.0,0.0,84,0.00,,,0.00,weatherlink.com 1.10,2013-03-29 09:22:00,
2013-03-29 05:38:00,24.2,20.0,30.30,NNW,340,0.0,0.0,85,0.00,,,0.00,weatherlink.com 1.10,2013-03-29 09:38:00,
2013-03-29 05:53:00,24.0,20.0,30.30,NNW,340,0.0,2.0,85,0.00,,,0.00,weatherlink.com 1.10,2013-03-29 09:53:00,
2013-03-29 06:08:00,24.1,20.0,30.30,NNW,340,0.0,1.0,85,0.00,,,0.00,weatherlink.com 1.10,2013-03-29 10:08:00,
2013-03-29 06:23:00,24.6,21.0,30.30,NNW,340,0.0,0.0,85,0.00,,,0.00,weatherlink.com 1.10,2013-03-29 10:23:00,
2013-03-29 06:38:00,24.5,21.0,30.30,NNW,340,0.0,2.0,85,0.00,,,0.00,weatherlink.com 1.10,2013-03-29 10:38:00,
2013-03-29 06:53:00,24.3,20.0,30.30,NNW,340,0.0,0.0,85,0.00,,,0.00,weatherlink.com 1.10,2013-03-29 10:53:00,
2013-03-29 07:08:00,23.7,20.0,30.30,NNW,340,0.0,1.0,86,0.00,,,0.00,weatherlink.com 1.10,2013-03-29 11:08:00,
2013-03-29 07:23:00,22.8,19.0,30.30,NNW,340,0.0,1.0,85,0.00,,,0.00,weatherlink.com 1.10,2013-03-29 11:23:00,
2013-03-29 07:38:00,22.9,19.0,30.31,NNW,340,0.0,2.0,86,0.00,,,0.00,weatherlink.com 1.10,2013-03-29 11:38:00,
2013-03-29 07:53:00,22.2,19.0,30.31,NNW,340,0.0,0.0,86,0.00,,,0.00,weatherlink.com 1.10,2013-03-29 11:53:00,
2013-03-29 08:08:00,23.0,19.0,30.31,NNW,340,0.0,2.0,86,0.00,,,0.00,weatherlink.com 1.10,2013-03-29 12:08:00,
2013-03-29 08:23:00,24.8,21.0,30.32,NNW,344,2.0,4.0,86,0.00,,,0.00,weatherlink.com 1.10,2013-03-29 12:23:00,
2013-03-29 08:38:00,26.1,22.0,30.32,NNW,344,2.0,4.0,85,0.00,,,0.00,weatherlink.com 1.10,2013-03-29 12:38:00,
2013-03-29 08:53:00,27.8,24.0,30.32,NW,316,1.0,4.0,84,0.00,,,0.00,weatherlink.com 1.10,2013-03-29 12:53:00,
2013-03-29 09:08:00,29.5,24.0,30.32,NW,316,2.0,3.0,80,0.00,,,0.00,weatherlink.com 1.10,2013-03-29 13:08:00,
2013-03-29 09:23:00,31.2,23.0,30.32,NW,316,1.0,4.0,72,0.00,,,0.00,weatherlink.com 1.10,2013-03-29 13:23:00,
2013-03-29 09:38:00,33.1,24.0,30.32,NW,316,0.0,3.0,68,0.00,,,0.00,weatherlink.com 1.10,2013-03-29 13:38:00,
2013-03-29 09:53:00,34.2,23.0,30.32,NW,316,2.0,3.0,64,0.00,,,0.00,weatherlink.com 1.10,2013-03-29 13:53:00,
2013-03-29 10:08:00,35.6,24.0,30.32,NW,316,2.0,3.0,62,0.00,,,0.00,weatherlink.com 1.10,2013-03-29 14:08:00,
2013-03-29 10:23:00,37.7,24.0,30.32,NW,316,0.0,2.0,57,0.00,,,0.00,weatherlink.com 1.10,2013-03-29 14:23:00,
2013-03-29 10:38:00,35.5,26.0,30.32,SW,219,4.0,6.0,69,0.00,,,0.00,weatherlink.com 1.10,2013-03-29 14:38:00,
2013-03-29 10:53:00,35.0,27.0,30.32,SW,225,4.0,6.0,73,0.00,,,0.00,weatherlink.com 1.10,2013-03-29 14:53:00,
2013-03-29 11:08:00,35.6,28.0,30.32,SW,224,1.0,5.0,74,0.00,,,0.00,weatherlink.com 1.10,2013-03-29 15:08:00,
2013-03-29 11:23:00,35.7,27.0,30.32,SW,223,3.0,6.0,70,0.00,,,0.00,weatherlink.com 1.10,2013-03-29 15:23:00,
2013-03-29 11:38:00,36.0,26.0,30.32,WSW,238,3.0,6.0,67,0.00,,,0.00,weatherlink.com 1.10,2013-03-29 15:38:00,
2013-03-29 11:53:00,36.7,26.0,30.32,WSW,241,4.0,6.0,66,0.00,,,0.00,weatherlink.com 1.10,2013-03-29 15:53:00,
2013-03-29 12:08:00,36.8,27.0,30.32,SW,225,4.0,6.0,69,0.00,,,0.00,weatherlink.com 1.10,2013-03-29 16:08:00,
2013-03-29 12:23:00,37.3,26.0,30.32,WSW,237,5.0,6.0,65,0.00,,,0.00,weatherlink.com 1.10,2013-03-29 16:23:00,
2013-03-29 12:38:00,37.8,27.0,30.31,WSW,240,3.0,7.0,65,0.00,,,0.00,weatherlink.com 1.10,2013-03-29 16:38:00,
2013-03-29 12:53:00,37.8,26.0,30.31,West,261,5.0,6.0,62,0.00,,,0.00,weatherlink.com 1.10,2013-03-29 16:53:00,
2013-03-29 13:08:00,38.4,27.0,30.30,SW,228,4.0,6.0,63,0.00,,,0.00,weatherlink.com 1.10,2013-03-29 17:08:00,
2013-03-29 13:23:00,39.1,27.0,30.30,SW,227,6.0,6.0,62,0.00,,,0.00,weatherlink.com 1.10,2013-03-29 17:23:00,
2013-03-29 13:38:00,39.6,27.0,30.30,West,271,5.0,6.0,61,0.00,,,0.00,weatherlink.com 1.10,2013-03-29 17:38:00,
2013-03-29 13:53:00,40.0,28.0,30.30,SW,233,2.0,8.0,62,0.00,,,0.00,weatherlink.com 1.10,2013-03-29 17:53:00,
2013-03-29 14:08:00,40.0,28.0,30.29,SW,223,4.0,7.0,62,0.00,,,0.00,weatherlink.com 1.10,2013-03-29 18:08:00,
2013-03-29 14:23:00,39.9,29.0,30.29,WSW,250,4.0,7.0,64,0.00,,,0.00,weatherlink.com 1.10,2013-03-29 18:23:00,
2013-03-29 14:38:00,40.3,28.0,30.29,SW,223,5.0,8.0,61,0.00,,,0.00,weatherlink.com 1.10,2013-03-29 18:38:00,
2013-03-29 14:53:00,40.8,29.0,30.28,WSW,248,4.0,7.0,63,0.00,,,0.00,weatherlink.com 1.10,2013-03-29 18:53:00,
2013-03-29 15:08:00,41.1,29.0,30.27,WSW,253,6.0,7.0,63,0.00,,,0.00,weatherlink.com 1.10,2013-03-29 19:08:00,
2013-03-29 15:23:00,41.3,29.0,30.27,SW,234,3.0,9.0,61,0.00,,,0.00,weatherlink.com 1.10,2013-03-29 19:23:00,
2013-03-29 15:39:00,41.7,28.0,30.27,WSW,242,9.0,9.0,59,0.00,,,0.00,weatherlink.com 1.10,2013-03-29 19:39:00,
2013-03-29 15:54:00,42.6,28.0,30.27,SW,229,4.0,9.0,56,0.00,,,0.00,weatherlink.com 1.10,2013-03-29 19:54:00,
2013-03-29 16:09:00,43.0,29.0,30.26,SW,232,9.0,9.0,58,0.00,,,0.00,weatherlink.com 1.10,2013-03-29 20:09:00,
2013-03-29 16:24:00,43.4,28.0,30.26,SW,215,9.0,10.0,54,0.00,,,0.00,weatherlink.com 1.10,2013-03-29 20:24:00,
2013-03-29 16:39:00,43.9,26.0,30.26,SW,219,6.0,9.0,50,0.00,,,0.00,weatherlink.com 1.10,2013-03-29 20:39:00,
2013-03-29 17:09:00,43.6,23.0,30.25,West,261,6.0,13.0,45,0.00,,,0.00,weatherlink.com 1.10,2013-03-29 21:09:00,
2013-03-29 17:24:00,44.0,23.0,30.25,West,262,3.0,14.0,43,0.00,,,0.00,weatherlink.com 1.10,2013-03-29 21:24:00,
2013-03-29 17:39:00,44.7,22.0,30.25,West,270,8.0,14.0,40,0.00,,,0.00,weatherlink.com 1.10,2013-03-29 21:39:00,
2013-03-29 17:54:00,44.3,22.0,30.25,WNW,284,6.0,16.0,41,0.00,,,0.00,weatherlink.com 1.10,2013-03-29 21:54:00,
2013-03-29 18:09:00,44.7,23.0,30.25,WNW,303,6.0,12.0,43,0.00,,,0.00,weatherlink.com 1.10,2013-03-29 22:09:00,
2013-03-29 18:24:00,44.3,23.0,30.25,WNW,291,8.0,11.0,44,0.00,,,0.00,weatherlink.com 1.10,2013-03-29 22:24:00,
2013-03-29 18:39:00,44.3,22.0,30.25,WNW,290,6.0,12.0,41,0.00,,,0.00,weatherlink.com 1.10,2013-03-29 22:39:00,
2013-03-29 18:54:00,44.1,21.0,30.25,WNW,286,9.0,14.0,40,0.00,,,0.00,weatherlink.com 1.10,2013-03-29 22:54:00,
2013-03-29 19:09:00,43.3,21.0,30.25,WNW,288,8.0,12.0,42,0.00,,,0.00,weatherlink.com 1.10,2013-03-29 23:09:00,
2013-03-29 19:24:00,42.3,22.0,30.25,WNW,289,8.0,12.0,44,0.00,,,0.00,weatherlink.com 1.10,2013-03-29 23:24:00,
2013-03-29 19:39:00,41.6,19.0,30.25,WNW,290,4.0,13.0,41,0.00,,,0.00,weatherlink.com 1.10,2013-03-29 23:39:00,
2013-03-29 19:54:00,40.7,21.0,30.25,West,271,3.0,10.0,45,0.00,,,0.00,weatherlink.com 1.10,2013-03-29 23:54:00,
2013-03-29 20:09:00,38.2,23.0,30.25,West,279,6.0,8.0,54,0.00,,,0.00,weatherlink.com 1.10,2013-03-30 00:09:00,
2013-03-29 20:24:00,37.1,23.0,30.25,WNW,289,4.0,8.0,56,0.00,,,0.00,weatherlink.com 1.10,2013-03-30 00:24:00,
2013-03-29 20:39:00,36.6,22.0,30.25,WNW,294,3.0,7.0,55,0.00,,,0.00,weatherlink.com 1.10,2013-03-30 00:39:00,
2013-03-29 20:54:00,35.8,22.0,30.25,WNW,294,0.0,3.0,58,0.00,,,0.00,weatherlink.com 1.10,2013-03-30 00:54:00,
2013-03-29 21:09:00,34.8,23.0,30.26,West,271,2.0,4.0,62,0.00,,,0.00,weatherlink.com 1.10,2013-03-30 01:09:00,
2013-03-29 21:24:00,34.1,23.0,30.26,West,271,0.0,3.0,63,0.00,,,0.00,weatherlink.com 1.10,2013-03-30 01:24:00,
2013-03-29 21:39:00,33.6,22.0,30.26,West,271,0.0,3.0,63,0.00,,,0.00,weatherlink.com 1.10,2013-03-30 01:39:00,
2013-03-29 21:54:00,31.9,23.0,30.26,West,271,0.0,3.0,70,0.00,,,0.00,weatherlink.com 1.10,2013-03-30 01:54:00,
2013-03-29 22:09:00,30.5,23.0,30.26,West,271,0.0,1.0,74,0.00,,,0.00,weatherlink.com 1.10,2013-03-30 02:09:00,
2013-03-29 22:24:00,29.4,23.0,30.26,West,271,0.0,0.0,76,0.00,,,0.00,weatherlink.com 1.10,2013-03-30 02:24:00,
2013-03-29 22:40:00,29.0,23.0,30.26,West,271,0.0,0.0,79,0.00,,,0.00,weatherlink.com 1.10,2013-03-30 02:40:00,
2013-03-29 22:54:00,29.3,23.0,30.26,West,271,0.0,1.0,78,0.00,,,0.00,weatherlink.com 1.10,2013-03-30 02:54:00,
2013-03-29 23:09:00,28.6,23.0,30.26,West,271,0.0,0.0,79,0.00,,,0.00,weatherlink.com 1.10,2013-03-30 03:09:00,
2013-03-29 23:24:00,28.3,23.0,30.26,West,271,0.0,0.0,80,0.00,,,0.00,weatherlink.com 1.10,2013-03-30 03:24:00,
2013-03-29 23:39:00,28.5,23.0,30.27,SW,225,0.0,5.0,81,0.00,,,0.00,weatherlink.com 1.10,2013-03-30 03:39:00,
2013-03-29 23:54:00,28.8,24.0,30.27,SW,225,0.0,0.0,81,0.00,,,0.00,weatherlink.com 1.10,2013-03-30 03:54:00,